createdAt,value
2023-04-18T00:00:10.936Z,10.95
2023-04-18T00:03:15.965Z,10.90
2023-04-18T00:06:19.473Z,11.27
2023-04-18T00:09:22.232Z,10.53
2023-04-18T00:12:25.022Z,10.77
2023-04-18T00:15:29.365Z,11.23
2023-04-18T00:18:32.103Z,11.77
2023-04-18T00:21:35.326Z,11.63
2023-04-18T00:24:38.161Z,10.57
2023-04-18T00:27:41.746Z,10.75
2023-04-18T00:30:44.508Z,11.45
2023-04-18T00:33:47.185Z,10.70
2023-04-18T00:36:49.861Z,10.45
2023-04-18T00:39:54.067Z,12.47
2023-04-18T00:42:56.777Z,12.40
2023-04-18T00:46:01.680Z,10.90
2023-04-18T00:49:04.699Z,11.55
2023-04-18T00:52:07.435Z,10.90
2023-04-18T00:55:10.669Z,12.97
2023-04-18T00:58:13.461Z,10.80
2023-04-18T01:01:16.397Z,10.93
2023-04-18T01:04:19.160Z,10.75
2023-04-18T01:07:22.374Z,10.30
2023-04-18T01:10:25.633Z,11.80
2023-04-18T01:13:28.285Z,10.80
2023-04-18T01:16:34.570Z,12.57
2023-04-18T01:19:40.539Z,11.30
2023-04-18T01:22:43.313Z,11.02
2023-04-18T01:25:47.084Z,10.37
2023-04-18T01:28:49.827Z,10.30
2023-04-18T01:31:52.656Z,11.85
2023-04-18T01:34:55.269Z,11.15
2023-04-18T01:37:58.554Z,9.88
2023-04-18T01:41:02.577Z,10.63
2023-04-18T01:44:05.836Z,11.00
2023-04-18T01:47:08.470Z,10.10
2023-04-18T01:50:11.356Z,10.95
2023-04-18T01:53:13.987Z,9.68
2023-04-18T01:56:16.839Z,9.83
2023-04-18T01:59:19.603Z,10.25
2023-04-18T02:02:22.512Z,10.35
2023-04-18T02:05:27.241Z,9.77
2023-04-18T02:08:31.041Z,9.20
2023-04-18T02:11:33.697Z,9.43
2023-04-18T02:14:36.731Z,8.40
2023-04-18T02:17:39.524Z,9.75
2023-04-18T02:20:42.256Z,9.30
2023-04-18T02:23:45.307Z,9.80
2023-04-18T02:26:48.073Z,8.87
2023-04-18T02:29:50.993Z,9.70
2023-04-18T02:32:54.919Z,9.27
2023-04-18T02:35:57.566Z,9.75
2023-04-18T02:39:00.860Z,10.32
2023-04-18T02:42:03.823Z,10.57
2023-04-18T02:45:07.818Z,10.77
2023-04-18T02:48:10.607Z,10.48
2023-04-18T02:51:13.519Z,8.60
2023-04-18T02:54:16.614Z,9.23
2023-04-18T02:57:19.511Z,9.47
2023-04-18T03:00:22.173Z,9.60
2023-04-18T03:03:24.962Z,11.65
2023-04-18T03:06:27.739Z,9.07
2023-04-18T03:09:30.662Z,11.68
2023-04-18T03:12:33.530Z,9.70
2023-04-18T03:15:36.263Z,9.15
2023-04-18T03:18:38.852Z,10.68
2023-04-18T03:21:41.723Z,10.48
2023-04-18T03:24:44.561Z,12.15
2023-04-18T03:27:47.349Z,9.27
2023-04-18T03:30:50.856Z,9.40
2023-04-18T03:33:53.859Z,8.57
2023-04-18T03:36:56.651Z,10.40
2023-04-18T03:39:59.308Z,9.05
2023-04-18T03:43:02.192Z,8.90
2023-04-18T03:46:04.939Z,10.35
2023-04-18T03:49:07.799Z,10.00
2023-04-18T03:52:10.842Z,8.77
2023-04-18T03:55:13.653Z,9.80
2023-04-18T03:58:16.470Z,19.40
2023-04-18T04:01:19.130Z,19.92
2023-04-18T04:04:21.902Z,39.20
2023-04-18T04:07:24.639Z,63.47
2023-04-18T04:10:27.369Z,25.98
2023-04-18T04:13:30.026Z,41.93
2023-04-18T04:16:32.762Z,12.88
2023-04-18T04:19:35.591Z,10.55
2023-04-18T04:22:38.291Z,11.57
2023-04-18T04:25:41.005Z,10.88
2023-04-18T04:28:46.727Z,16.73
2023-04-18T04:31:49.599Z,19.30
2023-04-18T04:34:52.440Z,14.23
2023-04-18T04:37:55.240Z,12.50
2023-04-18T04:40:58.479Z,17.73
2023-04-18T04:44:02.015Z,16.77
2023-04-18T04:47:05.038Z,14.90
2023-04-18T04:50:13.436Z,21.75
2023-04-18T04:53:16.158Z,14.60
2023-04-18T04:56:18.821Z,36.97
2023-04-18T04:59:21.456Z,44.67
2023-04-18T05:02:24.426Z,47.40
2023-04-18T05:05:28.615Z,38.42
2023-04-18T05:08:31.523Z,35.97
2023-04-18T05:11:34.761Z,24.48
2023-04-18T05:14:37.465Z,50.63
2023-04-18T05:17:40.248Z,40.83
2023-04-18T05:20:42.942Z,18.05
2023-04-18T05:23:46.579Z,12.90
2023-04-18T05:26:49.454Z,13.02
2023-04-18T05:29:52.835Z,12.87
2023-04-18T05:32:55.764Z,10.48
2023-04-18T05:35:58.912Z,10.00
2023-04-18T05:39:02.036Z,12.23
2023-04-18T05:42:05.004Z,12.02
2023-04-18T05:45:08.412Z,15.77
2023-04-18T05:48:11.268Z,13.45
2023-04-18T05:51:13.960Z,13.25
2023-04-18T05:54:17.233Z,11.10
2023-04-18T05:57:20.165Z,19.50
2023-04-18T06:00:23.061Z,20.63
2023-04-18T06:03:26.089Z,12.07
2023-04-18T06:06:29.073Z,9.13
2023-04-18T06:09:31.611Z,9.02
2023-04-18T06:12:34.313Z,8.88
2023-04-18T06:15:37.050Z,9.53
2023-04-18T06:18:39.852Z,11.55
2023-04-18T06:21:42.996Z,10.02
2023-04-18T06:24:45.608Z,9.40
2023-04-18T06:27:48.301Z,12.48
2023-04-18T06:30:51.245Z,14.23
2023-04-18T06:33:54.000Z,11.88
2023-04-18T06:36:56.699Z,10.88
2023-04-18T06:39:59.412Z,11.43
2023-04-18T06:43:02.094Z,11.52
2023-04-18T06:46:05.517Z,8.67
2023-04-18T06:49:08.377Z,9.48
2023-04-18T06:52:11.398Z,8.82
2023-04-18T06:55:14.449Z,10.43
2023-04-18T06:58:17.386Z,9.88
2023-04-18T07:01:20.233Z,10.37
2023-04-18T07:04:23.206Z,8.60
2023-04-18T07:07:26.640Z,10.70
2023-04-18T07:10:29.959Z,10.98
2023-04-18T07:13:32.743Z,9.90
2023-04-18T07:16:35.606Z,8.27
2023-04-18T07:19:38.722Z,10.95
2023-04-18T07:22:41.719Z,14.00
2023-04-18T07:25:44.565Z,10.07
2023-04-18T07:28:47.412Z,10.02
2023-04-18T07:31:50.154Z,14.50
2023-04-18T07:34:53.053Z,12.55
2023-04-18T07:37:55.830Z,12.00
2023-04-18T07:40:59.713Z,7.40
2023-04-18T07:44:02.869Z,8.32
2023-04-18T07:47:10.300Z,8.27
2023-04-18T07:50:13.115Z,7.45
2023-04-18T07:53:15.868Z,8.55
2023-04-18T07:56:19.017Z,8.43
2023-04-18T07:59:21.826Z,8.60
2023-04-18T08:02:24.686Z,10.63
2023-04-18T08:05:27.901Z,8.90
2023-04-18T08:08:30.663Z,10.52
2023-04-18T08:11:34.017Z,10.55
2023-04-18T08:14:36.664Z,10.50
2023-04-18T08:17:39.446Z,9.40
2023-04-18T08:20:42.277Z,10.30
2023-04-18T08:23:45.179Z,10.27
2023-04-18T08:26:47.915Z,11.95
2023-04-18T08:29:50.666Z,11.15
2023-04-18T08:32:53.409Z,10.17
2023-04-18T08:35:56.341Z,10.23
2023-04-18T08:38:59.454Z,10.23
2023-04-18T08:42:03.415Z,9.63
2023-04-18T08:45:07.155Z,8.85
2023-04-18T08:48:14.250Z,11.47
2023-04-18T08:51:16.904Z,10.73
2023-04-18T08:54:21.084Z,11.27
2023-04-18T08:57:26.995Z,12.45
2023-04-18T09:00:30.666Z,10.60
2023-04-18T09:03:43.407Z,9.00
2023-04-18T09:06:55.488Z,9.40
2023-04-18T09:09:58.390Z,8.57
2023-04-18T09:13:05.772Z,8.32
2023-04-18T09:16:08.966Z,18.17
2023-04-18T09:19:19.153Z,10.00
2023-04-18T09:22:22.138Z,14.87
2023-04-18T09:25:29.610Z,14.38
2023-04-18T09:28:33.634Z,16.83
2023-04-18T09:31:55.228Z,10.82
2023-04-18T09:35:04.776Z,16.37
2023-04-18T09:38:08.197Z,22.10
2023-04-18T09:41:12.160Z,10.82
2023-04-18T09:44:17.390Z,20.37
2023-04-18T09:47:20.417Z,23.75
2023-04-18T09:50:23.327Z,17.67
2023-04-18T09:53:26.233Z,24.00
2023-04-18T09:56:32.123Z,12.23
2023-04-18T10:00:03.995Z,12.37
2023-04-18T10:03:10.884Z,10.20
2023-04-18T10:06:16.717Z,23.53
2023-04-18T10:09:20.017Z,10.90
2023-04-18T10:12:23.048Z,13.68
2023-04-18T10:15:28.132Z,11.12
2023-04-18T10:18:31.181Z,10.23
2023-04-18T10:21:34.638Z,9.97
2023-04-18T10:24:53.811Z,9.75
2023-04-18T10:27:58.566Z,9.20
2023-04-18T10:31:05.863Z,8.85
2023-04-18T10:34:08.685Z,8.25
2023-04-18T10:37:13.277Z,11.87
2023-04-18T10:40:16.239Z,9.10
2023-04-18T10:43:19.014Z,9.40
2023-04-18T10:46:31.665Z,7.28
2023-04-18T10:49:38.615Z,8.23
2023-04-18T10:52:42.836Z,8.37
2023-04-18T10:55:52.727Z,10.00
2023-04-18T10:58:56.361Z,8.57
2023-04-18T11:02:11.296Z,16.20
2023-04-18T11:05:19.522Z,11.32
2023-04-18T11:08:24.870Z,10.93
2023-04-18T11:11:27.560Z,10.38
2023-04-18T11:15:01.461Z,8.18
2023-04-18T11:18:05.082Z,8.20
2023-04-18T11:21:08.113Z,10.55
2023-04-18T11:24:11.203Z,8.47
2023-04-18T11:27:14.406Z,8.38
2023-04-18T11:30:17.670Z,8.10
2023-04-18T11:33:20.581Z,10.48
2023-04-18T11:36:23.435Z,7.95
2023-04-18T11:39:26.216Z,8.00
2023-04-18T11:42:29.185Z,8.90
2023-04-18T11:45:32.225Z,8.25
2023-04-18T11:48:39.186Z,11.05
2023-04-18T11:51:46.396Z,7.18
2023-04-18T11:54:49.109Z,8.20
2023-04-18T11:57:53.726Z,8.80
2023-04-18T12:00:56.467Z,7.30
2023-04-18T12:04:07.808Z,8.32
2023-04-18T12:07:10.829Z,6.60
2023-04-18T12:10:19.982Z,7.53
2023-04-18T12:13:31.214Z,8.13
2023-04-18T12:16:34.030Z,7.47
2023-04-18T12:19:37.471Z,7.45
2023-04-18T12:22:49.714Z,6.47
2023-04-18T12:26:07.616Z,7.80
2023-04-18T12:29:10.406Z,6.10
2023-04-18T12:32:13.159Z,7.03
2023-04-18T12:35:17.138Z,6.97
2023-04-18T12:38:22.801Z,6.35
2023-04-18T12:41:25.673Z,6.50
2023-04-18T12:44:28.401Z,6.00
2023-04-18T12:47:31.797Z,7.28
2023-04-18T12:50:35.042Z,6.75
2023-04-18T12:53:37.887Z,5.87
2023-04-18T12:56:40.952Z,7.60
2023-04-18T12:59:43.679Z,6.45
2023-04-18T13:02:46.659Z,6.10
2023-04-18T13:05:49.810Z,6.70
2023-04-18T13:08:52.563Z,5.60
2023-04-18T13:11:55.423Z,6.53
2023-04-18T13:14:58.211Z,7.03
2023-04-18T13:18:05.153Z,6.82
2023-04-18T13:21:08.456Z,6.95
2023-04-18T13:24:11.233Z,7.10
2023-04-18T13:27:14.922Z,6.40
2023-04-18T13:30:17.694Z,7.12
2023-04-18T13:33:20.490Z,7.93
2023-04-18T13:36:24.349Z,6.93
2023-04-18T13:39:28.185Z,6.95
2023-04-18T13:42:30.853Z,7.13
2023-04-18T13:45:33.525Z,7.12
2023-04-18T13:48:36.390Z,8.27
2023-04-18T13:51:39.447Z,7.72
2023-04-18T13:54:42.155Z,7.00
2023-04-18T13:57:44.875Z,7.10
2023-04-18T14:00:47.499Z,7.00
2023-04-18T14:03:50.384Z,8.13
2023-04-18T14:06:53.165Z,7.43
2023-04-18T14:09:55.900Z,7.95
2023-04-18T14:12:58.573Z,8.10
2023-04-18T14:16:01.505Z,7.62
2023-04-18T14:19:04.389Z,6.28
2023-04-18T14:22:08.134Z,8.43
2023-04-18T14:25:10.762Z,8.82
2023-04-18T14:28:13.434Z,13.47
2023-04-18T14:31:16.696Z,7.62
2023-04-18T14:34:19.587Z,7.37
2023-04-18T14:37:22.442Z,7.53
2023-04-18T14:40:25.282Z,6.57
2023-04-18T14:43:28.236Z,5.77
2023-04-18T14:46:31.192Z,6.07
2023-04-18T14:49:34.114Z,7.32
2023-04-18T14:52:36.852Z,6.03
2023-04-18T14:55:39.589Z,7.30
2023-04-18T14:58:43.054Z,6.50
2023-04-18T15:01:45.905Z,6.45
2023-04-18T15:04:48.967Z,6.80
2023-04-18T15:07:52.292Z,7.87
2023-04-18T15:10:55.050Z,8.93
2023-04-18T15:13:57.742Z,7.93
2023-04-18T15:17:00.668Z,9.27
2023-04-18T15:20:06.359Z,7.78
2023-04-18T15:23:11.883Z,8.18
2023-04-18T15:26:14.522Z,8.00
2023-04-18T15:29:17.215Z,7.50
2023-04-18T15:32:21.267Z,9.30
2023-04-18T15:35:24.449Z,10.80
2023-04-18T15:38:27.323Z,9.73
2023-04-18T15:41:30.548Z,10.60
2023-04-18T15:44:33.383Z,9.97
2023-04-18T15:47:36.350Z,10.55
2023-04-18T15:50:39.229Z,9.98
2023-04-18T15:53:41.864Z,9.57
2023-04-18T15:56:44.969Z,9.13
2023-04-18T15:59:47.963Z,9.20
2023-04-18T16:02:50.789Z,8.25
2023-04-18T16:05:53.500Z,9.93
2023-04-18T16:08:56.279Z,9.63
2023-04-18T16:11:59.074Z,10.88
2023-04-18T16:15:01.785Z,10.40
2023-04-18T16:18:05.788Z,9.68
2023-04-18T16:21:08.534Z,8.95
2023-04-18T16:24:11.718Z,10.98
2023-04-18T16:27:14.474Z,9.35
2023-04-18T16:30:17.162Z,9.97
2023-04-18T16:33:24.750Z,11.43
2023-04-18T16:36:27.538Z,8.88
2023-04-18T16:39:31.316Z,10.20
2023-04-18T16:42:34.305Z,9.35
2023-04-18T16:45:37.013Z,9.60
2023-04-18T16:48:41.882Z,10.02
2023-04-18T16:51:44.618Z,10.50
2023-04-18T16:54:50.134Z,11.70
2023-04-18T16:57:54.686Z,10.00
2023-04-18T17:00:57.793Z,10.73
2023-04-18T17:04:00.699Z,10.98
2023-04-18T17:07:03.605Z,11.52
2023-04-18T17:10:08.796Z,14.07
2023-04-18T17:13:12.988Z,11.27
2023-04-18T17:16:18.889Z,11.50
2023-04-18T17:19:23.260Z,14.87
2023-04-18T17:22:29.644Z,14.38
2023-04-18T17:25:32.667Z,14.02
2023-04-18T17:28:36.406Z,10.00
2023-04-18T17:31:40.019Z,10.90
2023-04-18T17:34:47.016Z,11.60
2023-04-18T17:37:53.191Z,11.20
2023-04-18T17:41:01.671Z,11.35
2023-04-18T17:44:08.570Z,10.82
2023-04-18T17:47:11.661Z,10.30
2023-04-18T17:50:14.699Z,12.60
2023-04-18T17:53:19.099Z,21.00
2023-04-18T17:56:22.794Z,18.75
2023-04-18T17:59:28.564Z,13.20
2023-04-18T18:02:31.705Z,9.67
2023-04-18T18:05:34.817Z,9.25
2023-04-18T18:08:38.386Z,11.38
2023-04-18T18:11:55.806Z,9.75
2023-04-18T18:15:05.178Z,10.00
2023-04-18T18:18:09.646Z,10.77
2023-04-18T18:21:14.868Z,12.07
2023-04-18T18:24:19.518Z,12.80
2023-04-18T18:27:23.153Z,12.00
2023-04-18T18:30:28.590Z,12.37
2023-04-18T18:33:36.669Z,20.33
2023-04-18T18:36:40.469Z,17.30
2023-04-18T18:39:44.452Z,12.13
2023-04-18T18:42:51.503Z,11.60
2023-04-18T18:45:54.763Z,12.07
2023-04-18T18:49:01.197Z,11.53
2023-04-18T18:52:05.664Z,11.55
2023-04-18T18:55:10.001Z,12.55
2023-04-18T18:58:13.395Z,11.27
2023-04-18T19:01:16.518Z,13.38
2023-04-18T19:04:21.246Z,10.87
2023-04-18T19:07:24.979Z,11.12
2023-04-18T19:10:28.800Z,13.48
2023-04-18T19:13:33.113Z,12.57
2023-04-18T19:16:37.919Z,14.98
2023-04-18T19:19:42.240Z,16.93
2023-04-18T19:22:45.631Z,18.85
2023-04-18T19:25:49.071Z,18.67
2023-04-18T19:28:53.029Z,18.52
2023-04-18T19:31:56.666Z,19.70
2023-04-18T19:35:00.314Z,20.73
2023-04-18T19:38:03.476Z,21.83
2023-04-18T19:41:06.535Z,21.20
2023-04-18T19:44:12.607Z,23.20
2023-04-18T19:47:15.829Z,20.02
2023-04-18T19:50:18.960Z,22.50
2023-04-18T19:53:23.653Z,21.98
2023-04-18T19:56:27.156Z,21.73
2023-04-18T19:59:30.136Z,23.50
2023-04-18T20:02:33.343Z,24.75
2023-04-18T20:05:36.951Z,21.43
2023-04-18T20:08:41.750Z,22.73
2023-04-18T20:11:45.034Z,23.55
2023-04-18T20:14:48.032Z,23.80
2023-04-18T20:17:51.249Z,21.60
2023-04-18T20:20:54.294Z,24.27
2023-04-18T20:24:00.471Z,24.15
2023-04-18T20:27:03.250Z,22.13
2023-04-18T20:30:06.962Z,22.60
2023-04-18T20:33:09.960Z,24.00
2023-04-18T20:36:14.272Z,23.00
2023-04-18T20:39:17.795Z,21.83
2023-04-18T20:42:21.233Z,23.50
2023-04-18T20:45:25.006Z,22.58
2023-04-18T20:48:28.457Z,24.25
2023-04-18T20:51:32.107Z,21.20
2023-04-18T20:54:34.839Z,20.42
2023-04-18T20:57:37.582Z,21.70
2023-04-18T21:00:41.620Z,19.92
2023-04-18T21:03:44.873Z,22.08
2023-04-18T21:06:47.988Z,21.50
2023-04-18T21:09:50.893Z,18.37
2023-04-18T21:12:53.641Z,20.77
2023-04-18T21:15:59.333Z,18.67
2023-04-18T21:19:02.230Z,19.12
2023-04-18T21:22:05.105Z,19.13
2023-04-18T21:25:08.199Z,16.17
2023-04-18T21:28:12.406Z,17.45
2023-04-18T21:31:15.296Z,18.00
2023-04-18T21:34:18.134Z,18.55
2023-04-18T21:37:20.803Z,19.70
2023-04-18T21:40:24.481Z,19.60
2023-04-18T21:43:27.257Z,19.75
2023-04-18T21:46:29.931Z,17.67
2023-04-18T21:49:32.983Z,17.73
2023-04-18T21:52:36.006Z,18.73
2023-04-18T21:55:38.709Z,19.50
2023-04-18T21:58:41.328Z,15.70
2023-04-18T22:01:47.154Z,15.73
2023-04-18T22:04:52.773Z,18.15
2023-04-18T22:07:58.543Z,17.67
2023-04-18T22:11:01.764Z,18.05
2023-04-18T22:14:04.552Z,18.60
2023-04-18T22:17:07.185Z,18.45
2023-04-18T22:20:10.982Z,17.15
2023-04-18T22:23:16.849Z,17.50
2023-04-18T22:26:21.472Z,17.40
2023-04-18T22:29:24.270Z,16.85
2023-04-18T22:32:27.341Z,18.08
2023-04-18T22:35:32.941Z,19.00
2023-04-18T22:38:35.727Z,18.43
2023-04-18T22:41:38.504Z,17.85
2023-04-18T22:44:41.202Z,19.85
2023-04-18T22:47:46.852Z,18.20
2023-04-18T22:50:50.120Z,20.75
2023-04-18T22:53:53.045Z,18.03
2023-04-18T22:56:56.082Z,20.10
2023-04-18T22:59:58.845Z,20.37
2023-04-18T23:03:01.726Z,21.70
2023-04-18T23:06:07.569Z,19.53
2023-04-18T23:09:10.194Z,21.37
2023-04-18T23:12:14.785Z,22.83
2023-04-18T23:15:17.774Z,19.75
2023-04-18T23:18:20.739Z,22.17
2023-04-18T23:21:23.621Z,21.73
2023-04-18T23:24:26.373Z,18.50
2023-04-18T23:27:29.099Z,20.10
2023-04-18T23:30:31.818Z,17.35
2023-04-18T23:33:34.980Z,20.12
2023-04-18T23:36:37.776Z,16.23
2023-04-18T23:39:40.909Z,19.13
2023-04-18T23:42:44.102Z,20.02
2023-04-18T23:45:46.939Z,23.87
2023-04-18T23:48:49.699Z,23.73
2023-04-18T23:51:52.356Z,18.83
2023-04-18T23:54:55.643Z,21.63
2023-04-18T23:57:58.675Z,19.08
